Terminal Aerodrome Forecast
Issued by NWS

Home | Current Version | Previous Version | Text Only | Print | Product List | Glossary On
Versions: 1 2 3 4 5 6 7 8 9 10 11 12 13 14 15 16 17 18 19 20 21 22 23 24 25 26 27 28 29 30 31 32 33 34 35 36
000
FTUS46 KOTX 010540
TAFCOE
TAF
KCOE 010540Z 0106/0206 VRB02KT P6SM BKN030
     FM010630 06005KT P6SM SCT030 OVC080
     FM011600 06006KT 2SM -SN SCT010 OVC020
     FM011730 06006KT 1SM -SN OVC008
     FM012200 19004KT 1SM -SN OVC006
     FM020400 22004KT 3SM -SHSN SCT008 OVC012
      AMD LTD TO CLD AND VIS=

USA.gov is the U.S. government's official web portal to all federal, state and local government web resources and services.